Time;durP1;ratioP1;P1;durP2;ratioP2;P2;SDS_P1;SDS_P2;PMS_P1;PMS_P2;Temp;Humidity;BMP_temperature;BMP_pressure;BME280_temperature;BME280_humidity;BME280_pressure;Samples;Min_cycle;Max_cycle;Signal;HPM_P1;HPM_P2
2021/11/22 00:01:58;;;;;;;36.20;20.40;;;;;;;3.93;82.70;97076.69;108091;1272;59735;-67
2021/11/22 00:04:29;;;;;;;31.30;16.50;;;;;;;3.92;82.57;97074.16;108123;1272;69738;-68
2021/11/22 00:06:59;;;;;;;35.30;19.40;;;;;;;3.88;82.64;97071.64;108120;1272;68636;-68
2021/11/22 00:09:29;;;;;;;26.50;15.20;;;;;;;3.86;82.59;97068.80;107908;1272;69463;-68
2021/11/22 00:11:59;;;;;;;34.60;17.10;;;;;;;3.87;82.42;97069.05;108095;1272;59760;-68
2021/11/22 00:14:29;;;;;;;32.20;17.00;;;;;;;3.83;82.35;97069.12;108037;1272;59709;-67
2021/11/22 00:16:58;;;;;;;22.20;11.90;;;;;;;3.80;82.45;97074.27;107970;1274;70866;-68
2021/11/22 00:19:27;;;;;;;31.10;17.20;;;;;;;3.82;82.52;97072.96;107994;1272;67689;-68
2021/11/22 00:21:57;;;;;;;26.90;15.40;;;;;;;3.85;82.58;97071.41;108004;1272;68791;-68
2021/11/22 00:24:26;;;;;;;28.60;15.10;;;;;;;3.88;82.64;97076.44;108025;1271;59764;-68
2021/11/22 00:26:55;;;;;;;26.10;14.10;;;;;;;3.85;82.62;97077.98;108074;1272;59726;-67
2021/11/22 00:29:25;;;;;;;33.70;17.70;;;;;;;3.83;82.72;97079.27;107986;1271;71564;-67
2021/11/22 00:32:13;;;;;;;32.20;18.40;;;;;;;3.82;82.77;97077.93;108008;1272;67153;-68
2021/11/22 00:35:05;;;;;;;31.90;18.40;;;;;;;3.80;82.92;97078.40;108055;1274;68682;-68
2021/11/22 00:37:45;;;;;;;35.00;19.50;;;;;;;3.80;82.97;97076.52;108085;1272;59776;-67
2021/11/22 00:40:15;;;;;;;35.60;18.50;;;;;;;3.79;82.95;97075.49;107908;1272;59725;-68
2021/11/22 00:42:46;;;;;;;36.60;20.00;;;;;;;3.74;83.16;97078.52;108052;1272;70576;-68
2021/11/22 00:45:17;;;;;;;32.30;16.50;;;;;;;3.74;83.19;97078.02;108012;1275;68442;-68
2021/11/22 00:47:48;;;;;;;27.40;14.90;;;;;;;3.70;83.10;97075.79;107822;1275;68508;-68
2021/11/22 00:50:18;;;;;;;17.10;9.30;;;;;;;3.71;83.08;97082.66;108032;1275;59726;-68
2021/11/22 00:52:48;;;;;;;35.90;18.20;;;;;;;3.75;83.03;97078.51;108074;1272;59679;-67
2021/11/22 00:55:19;;;;;;;33.40;17.50;;;;;;;3.78;82.96;97078.35;108041;1272;70751;-68
2021/11/22 00:57:49;;;;;;;24.90;13.40;;;;;;;3.78;82.82;97072.79;107955;1272;67814;-67
2021/11/22 01:00:23;;;;;;;23.40;13.10;;;;;;;3.77;82.97;97068.89;107947;1272;69509;-68
2021/11/22 01:02:52;;;;;;;27.20;14.00;;;;;;;3.79;83.04;97068.46;107986;1272;59785;-68
2021/11/22 01:05:23;;;;;;;25.90;14.80;;;;;;;3.84;82.87;97068.37;108101;1274;60109;-67
2021/11/22 01:07:53;;;;;;;30.80;16.50;;;;;;;3.83;82.67;97064.62;108028;1271;70777;-68
2021/11/22 01:10:23;;;;;;;21.10;11.50;;;;;;;3.84;82.72;97065.80;108004;1272;68601;-68
2021/11/22 01:12:53;;;;;;;23.70;13.10;;;;;;;3.84;82.75;97067.16;108095;1272;68620;-68
2021/11/22 01:15:24;;;;;;;29.60;16.90;;;;;;;3.85;82.84;97069.17;107995;1272;59732;-67
2021/11/22 01:17:55;;;;;;;33.70;18.20;;;;;;;3.86;82.75;97071.21;107951;1274;59785;-67
2021/11/22 01:20:31;;;;;;;25.10;13.70;;;;;;;3.83;82.64;97072.36;108104;1272;70976;-67
2021/11/22 01:23:08;;;;;;;36.10;18.40;;;;;;;3.83;82.79;97073.95;108020;1272;67830;-67
2021/11/22 01:25:41;;;;;;;30.70;17.40;;;;;;;3.80;82.87;97073.38;107796;1276;68628;-67
2021/11/22 01:28:11;;;;;;;26.80;13.70;;;;;;;3.78;82.96;97076.05;108142;1275;59789;-67
2021/11/22 01:30:42;;;;;;;22.50;13.20;;;;;;;3.78;82.76;97073.32;108070;1275;59729;-68
2021/11/22 01:33:13;;;;;;;21.40;13.20;;;;;;;3.78;82.75;97074.67;108114;1272;70616;-68
2021/11/22 01:35:44;;;;;;;32.20;17.20;;;;;;;3.77;82.77;97071.51;108016;1271;68584;-69
2021/11/22 01:38:15;;;;;;;27.80;15.80;;;;;;;3.76;82.96;97070.33;108032;1271;69468;-67
2021/11/22 01:40:46;;;;;;;31.40;17.90;;;;;;;3.77;83.01;97071.99;108054;1271;59726;-68
2021/11/22 01:43:16;;;;;;;32.00;16.70;;;;;;;3.79;82.88;97078.45;108099;1272;59716;-68
2021/11/22 01:45:51;;;;;;;31.10;17.10;;;;;;;3.78;82.83;97080.07;108064;1272;71591;-68
2021/11/22 01:48:25;;;;;;;30.00;16.40;;;;;;;3.74;82.93;97079.39;108019;1271;68580;-68
2021/11/22 01:50:55;;;;;;;35.00;17.30;;;;;;;3.72;82.87;97078.99;108047;1272;69254;-67
2021/11/22 01:53:27;;;;;;;31.70;18.10;;;;;;;3.69;82.93;97079.81;108094;1272;59658;-67
2021/11/22 01:56:20;;;;;;;33.50;18.60;;;;;;;3.70;82.94;97078.23;108128;1272;59777;-67
2021/11/22 01:58:51;;;;;;;33.90;16.90;;;;;;;3.67;83.07;97082.33;108070;1273;71558;-68
2021/11/22 02:01:22;;;;;;;30.40;16.60;;;;;;;3.63;83.01;97082.55;108112;1272;67863;-67
2021/11/22 02:03:53;;;;;;;34.70;18.40;;;;;;;3.61;83.10;97078.84;108093;1272;69463;-68
2021/11/22 02:06:23;;;;;;;33.00;16.10;;;;;;;3.58;83.23;97076.92;108113;1272;59712;-67
2021/11/22 02:08:53;;;;;;;34.50;17.80;;;;;;;3.55;83.17;97078.60;108118;1272;59726;-67
2021/11/22 02:11:23;;;;;;;25.30;14.50;;;;;;;3.54;83.18;97080.23;108059;1272;70813;-68
2021/11/22 02:13:53;;;;;;;33.40;18.20;;;;;;;3.56;83.12;97078.04;108104;1272;68586;-67
2021/11/22 02:16:24;;;;;;;24.30;13.60;;;;;;;3.55;83.17;97073.60;108012;1275;69426;-69
2021/11/22 02:18:57;;;;;;;29.10;17.10;;;;;;;3.58;83.09;97071.23;108075;1271;59790;-68
2021/11/22 02:21:27;;;;;;;26.10;14.60;;;;;;;3.61;83.12;97072.98;108025;1271;59763;-68
2021/11/22 02:23:57;;;;;;;25.40;14.80;;;;;;;3.64;83.17;97076.13;108016;1275;71621;-67
2021/11/22 02:26:26;;;;;;;23.10;11.00;;;;;;;3.68;83.05;97075.20;108045;1272;67886;-67
2021/11/22 02:28:56;;;;;;;21.30;11.40;;;;;;;3.70;82.85;97072.88;107998;1272;69278;-68
2021/11/22 02:31:26;;;;;;;14.80;7.30;;;;;;;3.68;82.91;97072.31;108000;1272;59731;-69
2021/11/22 02:33:58;;;;;;;23.10;12.70;;;;;;;3.71;82.71;97069.70;108026;1271;59716;-67
2021/11/22 02:36:28;;;;;;;;;;;;;;;3.73;82.77;97068.92;107971;1274;71699;-68
2021/11/22 02:38:58;;;;;;;21.20;11.50;;;;;;;3.70;82.99;97067.54;108080;1271;68461;-68
2021/11/22 02:41:28;;;;;;;23.70;13.40;;;;;;;3.70;82.95;97069.06;107959;1271;68451;-67
2021/11/22 02:43:59;;;;;;;20.30;11.00;;;;;;;3.68;82.99;97074.03;108063;1271;60637;-67
2021/11/22 02:46:30;;;;;;;28.00;14.60;;;;;;;3.68;82.93;97073.85;108012;1272;59695;-67
2021/11/22 02:49:00;;;;;;;21.60;12.90;;;;;;;3.66;82.93;97076.73;108031;1272;71367;-67
2021/11/22 02:51:33;;;;;;;16.70;8.50;;;;;;;3.66;82.94;97074.30;108024;1272;68509;-67
2021/11/22 02:54:05;;;;;;;19.20;10.30;;;;;;;3.68;82.98;97068.83;108008;1272;69066;-67
2021/11/22 02:56:36;;;;;;;19.60;10.40;;;;;;;3.70;82.73;97070.45;107985;1272;59760;-68
2021/11/22 02:59:07;;;;;;;22.40;13.10;;;;;;;3.70;82.92;97072.05;107980;1275;59711;-67
2021/11/22 03:01:38;;;;;;;19.20;10.90;;;;;;;3.70;82.93;97075.64;107952;1275;71564;-67
2021/11/22 03:04:08;;;;;;;20.40;11.40;;;;;;;3.71;83.01;97073.52;108078;1268;68119;-69
2021/11/22 03:06:46;;;;;;;24.00;12.80;;;;;;;3.73;82.92;97071.52;107896;1275;69248;-67
2021/11/22 03:09:20;;;;;;;24.20;12.90;;;;;;;3.69;82.84;97077.58;107913;1272;59711;-67
2021/11/22 03:11:56;;;;;;;22.90;12.50;;;;;;;3.66;82.80;97075.33;107765;1276;59688;-67
2021/11/22 03:14:30;;;;;;;23.20;13.50;;;;;;;3.61;82.78;97074.20;107963;1275;71617;-67
2021/11/22 03:17:05;;;;;;;26.20;13.70;;;;;;;3.59;82.89;97073.80;107904;1272;68177;-68
2021/11/22 03:19:44;;;;;;;23.60;11.50;;;;;;;3.61;82.97;97079.52;108006;1275;69628;-67
2021/11/22 03:22:18;;;;;;;23.90;13.70;;;;;;;3.56;83.06;97082.19;107918;1275;60494;-68
2021/11/22 03:24:52;;;;;;;22.10;12.70;;;;;;;3.50;83.13;97083.19;107703;1276;59719;-68
2021/11/22 03:27:30;;;;;;;23.40;13.60;;;;;;;3.46;83.23;97083.03;107838;1276;71840;-68
2021/11/22 03:30:11;;;;;;;17.70;10.00;;;;;;;3.46;83.22;97082.86;107900;1272;67688;-67
2021/11/22 03:32:48;;;;;;;21.10;11.80;;;;;;;3.45;83.36;97086.18;107811;1276;69349;-67
2021/11/22 03:35:22;;;;;;;21.40;12.50;;;;;;;3.46;83.39;97087.52;107901;1274;59783;-68
2021/11/22 03:37:58;;;;;;;20.30;10.90;;;;;;;3.47;83.34;97089.72;107774;1275;59854;-69
2021/11/22 03:40:36;;;;;;;19.30;11.00;;;;;;;3.50;83.36;97088.53;107771;1276;71815;-67
2021/11/22 03:45:48;;;;;;;25.80;13.40;;;;;;;3.56;83.19;97098.23;107928;1269;68888;-67
2021/11/22 03:48:33;;;;;;;28.20;14.70;;;;;;;3.56;83.14;97100.63;108034;1272;59750;-69
2021/11/22 03:51:06;;;;;;;27.50;14.30;;;;;;;3.52;83.28;97100.50;107893;1275;59675;-67
2021/11/22 03:53:40;;;;;;;21.20;10.60;;;;;;;3.52;83.32;97105.14;107897;1274;70380;-67
2021/11/22 03:56:12;;;;;;;22.50;12.90;;;;;;;3.52;83.26;97100.66;107936;1274;68808;-68
2021/11/22 03:58:43;;;;;;;26.20;13.40;;;;;;;3.52;83.22;97103.77;107786;1275;69288;-68
2021/11/22 04:01:16;;;;;;;25.60;12.60;;;;;;;3.51;83.22;97114.14;107940;1274;59760;-68
2021/11/22 04:03:49;;;;;;;22.70;12.40;;;;;;;3.49;83.17;97118.52;107935;1275;59723;-67
2021/11/22 04:06:20;;;;;;;24.60;13.00;;;;;;;3.44;83.24;97114.52;107977;1273;70069;-68
2021/11/22 04:08:53;;;;;;;24.40;13.40;;;;;;;3.39;83.37;97114.36;107752;1275;69703;-68
2021/11/22 04:11:28;;;;;;;15.60;8.30;;;;;;;3.40;83.46;97111.60;107915;1274;69404;-68
2021/11/22 04:14:05;;;;;;;22.60;13.00;;;;;;;3.43;83.38;97115.77;107900;1273;59762;-67
2021/11/22 04:16:39;;;;;;;24.20;12.80;;;;;;;3.43;83.32;97118.66;107885;1274;59761;-67
2021/11/22 04:19:13;;;;;;;27.90;14.10;;;;;;;3.44;83.27;97116.56;107693;1274;71843;-68
2021/11/22 04:21:45;;;;;;;21.10;11.70;;;;;;;3.45;83.28;97115.98;107958;1272;68632;-67
2021/11/22 04:24:18;;;;;;;28.40;13.80;;;;;;;3.48;83.33;97117.04;107716;1277;70704;-67
2021/11/22 04:26:50;;;;;;;21.60;11.00;;;;;;;3.51;83.21;97118.98;107922;1275;59780;-67
2021/11/22 04:29:22;;;;;;;21.80;12.70;;;;;;;3.53;83.24;97119.39;108005;1272;59675;-67
2021/11/22 04:31:57;;;;;;;16.60;9.70;;;;;;;3.54;83.17;97118.63;107822;1275;71687;-67
2021/11/22 04:34:34;;;;;;;22.70;11.80;;;;;;;3.55;83.21;97117.02;107781;1274;68476;-68
2021/11/22 04:37:08;;;;;;;16.30;8.10;;;;;;;3.59;83.14;97116.52;107824;1272;68926;-68
2021/11/22 04:39:38;;;;;;;20.10;10.50;;;;;;;3.59;83.11;97113.39;107931;1271;59757;-67
2021/11/22 04:42:10;;;;;;;19.20;10.60;;;;;;;3.59;83.06;97117.88;107966;1274;59729;-67
2021/11/22 04:44:42;;;;;;;21.20;11.20;;;;;;;3.62;83.01;97122.41;107826;1276;72456;-67
2021/11/22 04:47:20;;;;;;;18.10;10.90;;;;;;;3.62;82.89;97120.35;108084;1272;67877;-68
2021/11/22 04:49:52;;;;;;;22.10;11.90;;;;;;;3.59;82.88;97124.77;107785;1274;68595;-67
2021/11/22 04:52:22;;;;;;;16.40;9.00;;;;;;;3.58;82.98;97126.52;107900;1272;59736;-67
2021/11/22 04:54:53;;;;;;;17.60;9.80;;;;;;;3.59;82.87;97128.77;107843;1274;60174;-68
2021/11/22 04:57:24;;;;;;;24.10;14.10;;;;;;;3.57;82.86;97130.36;107975;1273;72559;-67
2021/11/22 04:59:57;;;;;;;20.60;10.10;;;;;;;3.58;82.93;97130.70;107833;1272;68656;-67
2021/11/22 05:02:26;;;;;;;24.20;13.10;;;;;;;3.57;82.99;97129.84;107868;1271;68580;-67
2021/11/22 05:04:56;;;;;;;26.40;13.90;;;;;;;3.57;83.05;97127.44;108136;1272;59758;-67
2021/11/22 05:07:25;;;;;;;19.00;10.80;;;;;;;3.59;83.07;97126.84;108206;1272;59678;-67
2021/11/22 05:09:56;;;;;;;21.40;12.40;;;;;;;3.54;83.12;97126.02;107881;1273;71597;-67
2021/11/22 05:12:31;;;;;;;27.50;13.80;;;;;;;3.50;83.20;97128.13;107948;1274;68654;-67
2021/11/22 05:15:05;;;;;;;25.10;13.60;;;;;;;3.48;83.65;97126.88;107635;1274;69413;-67
2021/11/22 05:17:40;;;;;;;21.00;11.80;;;;;;;3.45;83.59;97127.69;107889;1272;59747;-68
2021/11/22 05:20:12;;;;;;;29.00;13.30;;;;;;;3.43;83.49;97129.69;107894;1274;59732;-67
2021/11/22 05:22:45;;;;;;;24.00;12.80;;;;;;;3.45;83.44;97134.09;107772;1276;71354;-68
2021/11/22 05:25:17;;;;;;;15.10;7.80;;;;;;;3.46;83.38;97132.98;107957;1275;68758;-68
2021/11/22 05:27:49;;;;;;;25.30;13.30;;;;;;;3.48;83.39;97136.70;107860;1272;68619;-69
2021/11/22 05:30:25;;;;;;;24.40;13.90;;;;;;;3.50;83.23;97137.13;107976;1274;59725;-67
2021/11/22 05:32:58;;;;;;;23.70;13.40;;;;;;;3.51;83.26;97141.73;107826;1275;59719;-67
2021/11/22 05:35:30;;;;;;;20.60;10.20;;;;;;;3.52;83.29;97146.67;107869;1275;70676;-67
2021/11/22 05:38:03;;;;;;;24.10;13.50;;;;;;;3.52;83.22;97148.05;107829;1272;68697;-67
2021/11/22 05:40:33;;;;;;;26.90;13.40;;;;;;;3.50;83.15;97147.27;107875;1272;69487;-67
2021/11/22 05:43:03;;;;;;;;;;;;;;;3.48;83.16;97151.52;107838;1275;59723;-67
2021/11/22 05:45:34;;;;;;;;;;;;;;;3.46;83.21;97158.48;107845;1274;59791;-68
2021/11/22 05:48:07;;;;;;;24.50;12.40;;;;;;;3.46;83.35;97160.73;108215;1271;71566;-67
2021/11/22 05:50:37;;;;;;;26.70;13.20;;;;;;;3.47;83.21;97161.73;108079;1272;67821;-68
2021/11/22 05:53:07;;;;;;;21.80;12.50;;;;;;;3.44;83.28;97167.20;108050;1272;69492;-68
2021/11/22 05:55:38;;;;;;;25.00;13.00;;;;;;;3.43;83.50;97171.05;108030;1272;59738;-68
2021/11/22 05:58:12;;;;;;;28.70;15.70;;;;;;;3.38;83.61;97175.09;107891;1272;59709;-68
2021/11/22 06:00:42;;;;;;;31.50;17.50;;;;;;;3.33;83.83;97179.45;108105;1272;71514;-67
2021/11/22 06:03:12;;;;;;;24.10;14.20;;;;;;;3.32;83.91;97180.86;107989;1272;67800;-68
2021/11/22 06:05:43;;;;;;;27.40;15.00;;;;;;;3.32;83.95;97182.58;107964;1272;68591;-68
2021/11/22 06:08:12;;;;;;;25.00;15.20;;;;;;;3.35;83.89;97182.98;108006;1271;59763;-68
2021/11/22 06:10:41;;;;;;;31.40;19.80;;;;;;;3.37;83.84;97182.00;108008;1272;59738;-67
2021/11/22 06:13:12;;;;;;;24.50;13.50;;;;;;;3.36;83.87;97180.70;107935;1275;71657;-67
2021/11/22 06:15:42;;;;;;;20.90;12.20;;;;;;;3.36;83.91;97185.87;107572;1274;508386;-68
2021/11/22 06:18:13;;;;;;;19.60;10.20;;;;;;;3.38;83.85;97189.19;107948;1272;69423;-67
2021/11/22 06:20:42;;;;;;;20.30;10.60;;;;;;;3.40;83.78;97190.15;107984;1272;59766;-67
2021/11/22 06:23:11;;;;;;;18.90;10.40;;;;;;;3.42;83.71;97196.09;108014;1272;59658;-68
2021/11/22 06:25:42;;;;;;;17.10;9.10;;;;;;;3.41;83.78;97198.91;107974;1271;71632;-68
2021/11/22 06:28:10;;;;;;;19.20;11.40;;;;;;;3.41;83.79;97210.41;107974;1274;68603;-68
2021/11/22 06:30:40;;;;;;;18.50;10.60;;;;;;;3.42;83.83;97207.80;107875;1272;69468;-68
2021/11/22 06:33:10;;;;;;;28.20;15.40;;;;;;;3.40;83.77;97205.29;107875;1274;59681;-68
2021/11/22 06:35:39;;;;;;;23.50;12.10;;;;;;;3.40;83.87;97210.63;107972;1275;59639;-68
2021/11/22 06:38:09;;;;;;;21.10;10.90;;;;;;;3.39;84.03;97210.52;107914;1274;72047;-68
2021/11/22 06:40:38;;;;;;;21.70;10.60;;;;;;;3.39;83.80;97210.84;108085;1271;68642;-68
2021/11/22 06:43:08;;;;;;;17.90;8.90;;;;;;;3.40;83.65;97211.66;107840;1277;68775;-68
2021/11/22 06:45:38;;;;;;;21.40;12.00;;;;;;;3.40;83.58;97212.36;108014;1271;59792;-68
2021/11/22 06:48:07;;;;;;;;;;;;;;;3.40;83.56;97211.35;107982;1271;59784;-68
2021/11/22 06:50:36;;;;;;;24.70;12.90;;;;;;;3.39;83.68;97211.05;107803;1275;71633;-68
2021/11/22 06:53:06;;;;;;;23.20;12.90;;;;;;;3.38;83.56;97214.88;108029;1271;67843;-68
2021/11/22 06:55:35;;;;;;;23.90;13.00;;;;;;;3.39;83.65;97214.84;107974;1272;67814;-68
2021/11/22 06:58:04;;;;;;;25.70;12.30;;;;;;;3.36;83.79;97213.78;107991;1275;59802;-68
2021/11/22 07:00:33;;;;;;;18.00;10.10;;;;;;;3.36;83.73;97211.70;107992;1272;59665;-69
2021/11/22 07:03:03;;;;;;;23.60;12.40;;;;;;;3.36;83.71;97216.51;107968;1275;71507;-68
2021/11/22 07:05:37;;;;;;;23.70;12.60;;;;;;;3.38;83.72;97215.75;108021;1275;68636;-69
2021/11/22 07:08:07;;;;;;;22.00;12.50;;;;;;;3.39;83.76;97213.27;107925;1274;69435;-68
2021/11/22 07:10:37;;;;;;;19.40;9.90;;;;;;;3.38;83.80;97212.98;107774;1275;59759;-68
2021/11/22 07:13:06;;;;;;;20.20;10.30;;;;;;;3.40;83.73;97209.45;107977;1272;59713;-69
2021/11/22 07:15:36;;;;;;;22.30;11.10;;;;;;;3.42;83.73;97209.88;108076;1272;71995;-69
2021/11/22 07:18:05;;;;;;;21.40;11.20;;;;;;;3.44;83.61;97211.29;107972;1272;67877;-69
2021/11/22 07:20:34;;;;;;;19.20;11.40;;;;;;;3.47;83.59;97210.15;107958;1272;68879;-69
2021/11/22 07:23:04;;;;;;;21.70;11.30;;;;;;;3.48;83.66;97208.55;107807;1275;59760;-69
2021/11/22 07:25:33;;;;;;;27.90;14.40;;;;;;;3.50;83.59;97210.51;107994;1275;59725;-69
2021/11/22 07:28:02;;;;;;;19.50;11.10;;;;;;;3.51;83.65;97208.40;108064;1271;71627;-69
2021/11/22 07:30:32;;;;;;;20.30;10.70;;;;;;;3.54;83.60;97207.89;108029;1271;68846;-69
2021/11/22 07:33:01;;;;;;;21.10;11.20;;;;;;;3.58;83.49;97210.64;107815;1275;69485;-69
2021/11/22 07:35:31;;;;;;;22.60;11.70;;;;;;;3.62;83.39;97213.23;108026;1276;59754;-68
2021/11/22 07:38:00;;;;;;;19.70;10.10;;;;;;;3.63;83.15;97215.91;108013;1275;59665;-69
2021/11/22 07:40:29;;;;;;;22.40;11.30;;;;;;;3.62;83.08;97212.52;108011;1271;71310;-68
2021/11/22 07:42:58;;;;;;;16.60;9.80;;;;;;;3.60;83.17;97207.61;107841;1275;67939;-69
2021/11/22 07:45:28;;;;;;;19.40;11.10;;;;;;;3.57;83.13;97207.90;107893;1274;69440;-69
2021/11/22 07:47:58;;;;;;;24.80;12.80;;;;;;;3.58;83.12;97214.77;107962;1275;59761;-68
2021/11/22 07:50:28;;;;;;;;;;;;;;;3.57;83.31;97216.87;107973;1272;59716;-68
2021/11/22 07:52:57;;;;;;;23.10;10.90;;;;;;;3.60;83.22;97215.90;107978;1272;71492;-68
2021/11/22 07:55:27;;;;;;;22.00;11.90;;;;;;;3.60;82.96;97219.16;108043;1275;68799;-69
2021/11/22 07:57:57;;;;;;;18.70;10.20;;;;;;;3.56;83.06;97217.10;107929;1275;69511;-68
2021/11/22 08:00:27;;;;;;;19.80;10.50;;;;;;;3.55;83.12;97215.75;108081;1272;60374;-68
2021/11/22 08:02:57;;;;;;;20.20;9.90;;;;;;;3.56;83.28;97215.55;107948;1272;59766;-69
2021/11/22 08:05:28;;;;;;;22.50;11.40;;;;;;;3.56;83.27;97216.59;108005;1275;70791;-69
2021/11/22 08:07:57;;;;;;;20.90;12.00;;;;;;;3.54;83.24;97220.98;107868;1272;68699;-68
2021/11/22 08:10:28;;;;;;;24.90;12.80;;;;;;;3.56;83.19;97224.68;107987;1271;69438;-69
2021/11/22 08:13:04;;;;;;;16.60;8.30;;;;;;;3.57;83.21;97223.78;107998;1275;59702;-69
2021/11/22 08:15:35;;;;;;;32.50;16.40;;;;;;;3.61;83.16;97223.96;108096;1272;60091;-68
2021/11/22 08:18:07;;;;;;;24.70;13.00;;;;;;;3.63;83.08;97223.36;107972;1272;71556;-68
2021/11/22 08:20:36;;;;;;;26.10;13.40;;;;;;;3.66;83.17;97223.05;107981;1275;68956;-68
2021/11/22 08:23:05;;;;;;;24.60;12.10;;;;;;;3.69;83.17;97222.86;107925;1275;69557;-68
2021/11/22 08:25:34;;;;;;;19.70;11.40;;;;;;;3.72;83.10;97224.41;108042;1268;59741;-68
2021/11/22 08:28:04;;;;;;;16.70;9.30;;;;;;;3.74;83.07;97231.58;107999;1275;59811;-68
2021/11/22 08:30:35;;;;;;;23.70;12.80;;;;;;;3.78;83.08;97234.16;108091;1272;70788;-68
2021/11/22 08:33:04;;;;;;;30.80;15.90;;;;;;;3.83;83.11;97235.45;108044;1272;67852;-68
2021/11/22 08:35:34;;;;;;;19.40;10.50;;;;;;;3.87;83.03;97235.95;108004;1274;69241;-67
2021/11/22 08:38:03;;;;;;;26.40;13.90;;;;;;;3.91;82.95;97238.36;108052;1273;59763;-68
2021/11/22 08:40:33;;;;;;;20.50;10.40;;;;;;;3.94;82.83;97241.80;107935;1274;59761;-68
2021/11/22 08:43:03;;;;;;;16.10;8.10;;;;;;;3.98;82.74;97241.30;108055;1272;71203;-68
2021/11/22 08:45:32;;;;;;;;;;;;;;;4.02;82.48;97239.20;108104;1272;68650;-68
2021/11/22 08:48:02;;;;;;;21.30;11.40;;;;;;;4.00;82.06;97236.19;108019;1272;69423;-68
2021/11/22 08:50:32;;;;;;;29.80;14.10;;;;;;;3.96;81.89;97235.70;107932;1275;59780;-68
2021/11/22 08:53:01;;;;;;;29.40;15.20;;;;;;;3.85;82.00;97230.70;107935;1274;59693;-68
2021/11/22 08:55:30;;;;;;;27.20;13.80;;;;;;;3.77;82.08;97231.95;107956;1275;70904;-68
2021/11/22 08:58:00;;;;;;;28.30;14.70;;;;;;;3.68;82.32;97232.41;107890;1272;68300;-68
2021/11/22 09:00:34;;;;;;;16.40;7.50;;;;;;;3.58;82.58;97228.56;108046;1272;69256;-68
2021/11/22 09:03:05;;;;;;;28.00;13.80;;;;;;;3.63;82.72;97225.77;108037;1275;59734;-68
2021/11/22 09:05:35;;;;;;;28.00;12.60;;;;;;;3.65;82.72;97226.02;108120;1272;59771;-67
2021/11/22 09:08:04;;;;;;;21.50;10.80;;;;;;;3.67;82.64;97224.19;108054;1272;71611;-68
2021/11/22 09:10:33;;;;;;;22.20;11.10;;;;;;;3.67;82.67;97222.61;107995;1272;68442;-67
2021/11/22 09:13:04;;;;;;;24.00;11.10;;;;;;;3.69;82.61;97221.64;108131;1272;68629;-68
2021/11/22 09:15:33;;;;;;;;;;;;;;;3.71;82.52;97220.36;108059;1272;59779;-69
2021/11/22 09:18:02;;;;;;;21.20;10.40;;;;;;;3.71;82.46;97221.92;107832;1276;59761;-69
2021/11/22 09:20:31;;;;;;;23.80;10.90;;;;;;;3.74;82.31;97223.66;107849;1277;71831;-68
2021/11/22 09:23:02;;;;;;;21.70;10.90;;;;;;;3.72;82.27;97220.27;107844;1275;68607;-69
2021/11/22 09:25:31;;;;;;;21.30;10.30;;;;;;;3.74;82.36;97221.27;107956;1274;68612;-68
2021/11/22 09:28:00;;;;;;;17.60;9.80;;;;;;;3.76;82.30;97218.73;108055;1270;59732;-68
2021/11/22 09:30:29;;;;;;;27.60;14.70;;;;;;;3.78;82.27;97223.43;107830;1275;59724;-69
2021/11/22 09:32:59;;;;;;;21.20;10.10;;;;;;;3.78;82.25;97219.86;107971;1274;71626;-68
2021/11/22 09:35:28;;;;;;;15.70;8.20;;;;;;;3.78;82.01;97223.33;108071;1272;69391;-68
2021/11/22 09:37:57;;;;;;;23.50;12.20;;;;;;;3.76;82.09;97224.27;108023;1272;69729;-68
2021/11/22 09:40:26;;;;;;;19.60;9.20;;;;;;;3.77;81.94;97223.50;108020;1272;59777;-68
2021/11/22 09:42:56;;;;;;;18.00;9.20;;;;;;;3.76;82.00;97222.04;108096;1271;59793;-68
2021/11/22 09:45:27;;;;;;;30.30;14.20;;;;;;;3.71;82.15;97221.40;108083;1272;71603;-69
2021/11/22 09:48:02;;;;;;;18.40;9.30;;;;;;;3.71;82.21;97222.80;108168;1271;67927;-68
2021/11/22 09:50:32;;;;;;;17.30;8.30;;;;;;;3.71;82.26;97218.47;108097;1272;67673;-69
2021/11/22 09:53:03;;;;;;;31.60;16.10;;;;;;;3.74;82.20;97221.95;108070;1272;59838;-68
2021/11/22 09:55:35;;;;;;;32.10;14.90;;;;;;;3.76;82.22;97222.21;107990;1274;59752;-68
2021/11/22 09:58:06;;;;;;;23.70;12.70;;;;;;;3.75;82.21;97222.75;107994;1272;70079;-68
2021/11/22 10:00:53;;;;;;;21.00;11.80;;;;;;;3.69;82.39;97222.89;107811;1275;68614;-69
2021/11/22 10:03:24;;;;;;;23.90;11.80;;;;;;;3.72;82.51;97222.88;108023;1272;69467;-68
2021/11/22 10:05:58;;;;;;;31.40;15.60;;;;;;;3.74;82.43;97220.39;107925;1275;60057;-68
2021/11/22 10:08:28;;;;;;;31.80;15.60;;;;;;;3.75;82.37;97220.49;108066;1274;59714;-68
2021/11/22 10:11:00;;;;;;;20.00;11.30;;;;;;;3.68;82.40;97216.04;108007;1272;71691;-68
2021/11/22 10:13:38;;;;;;;22.50;12.40;;;;;;;3.64;82.52;97214.34;108012;1273;69254;-68
2021/11/22 10:16:07;;;;;;;33.50;17.70;;;;;;;3.68;82.65;97207.58;107963;1274;69191;-68
2021/11/22 10:18:47;;;;;;;34.30;16.30;;;;;;;3.69;82.58;97211.49;107955;1272;59690;-68
2021/11/22 10:21:21;;;;;;;34.20;17.60;;;;;;;3.67;82.70;97214.88;108036;1272;59780;-67
2021/11/22 10:23:58;;;;;;;22.10;11.30;;;;;;;3.64;82.79;97212.58;107902;1275;72247;-67
2021/11/22 10:26:37;;;;;;;23.70;11.30;;;;;;;3.68;82.74;97212.59;107962;1275;68831;-68
2021/11/22 10:29:06;;;;;;;20.00;10.00;;;;;;;3.71;82.61;97209.52;108082;1271;69825;-68
2021/11/22 10:31:38;;;;;;;18.70;9.40;;;;;;;3.71;82.42;97206.08;108000;1272;59693;-67
2021/11/22 10:34:07;;;;;;;21.20;10.40;;;;;;;3.73;82.48;97204.05;107973;1275;59716;-67
2021/11/22 10:36:38;;;;;;;24.50;12.90;;;;;;;3.78;82.39;97201.76;108010;1274;71591;-67
2021/11/22 10:39:11;;;;;;;15.30;8.30;;;;;;;3.80;82.30;97202.69;107975;1272;68615;-67
2021/11/22 10:41:52;;;;;;;19.80;9.50;;;;;;;3.82;82.08;97201.52;108028;1275;69917;-68
2021/11/22 10:44:35;;;;;;;18.40;8.60;;;;;;;3.83;81.98;97200.13;107615;1276;59742;-69
2021/11/22 10:47:14;;;;;;;22.10;11.40;;;;;;;3.84;82.06;97204.91;107831;1276;59764;-68
2021/11/22 10:49:53;;;;;;;22.30;12.00;;;;;;;3.86;81.91;97206.35;107869;1274;70828;-68
2021/11/22 10:52:43;;;;;;;25.70;13.80;;;;;;;3.85;81.73;97203.65;107926;1272;68446;-68
2021/11/22 10:55:16;;;;;;;28.50;12.50;;;;;;;3.80;81.70;97203.55;107889;1275;69299;-68
2021/11/22 10:57:52;;;;;;;26.60;13.50;;;;;;;3.77;81.78;97202.49;107742;1277;59793;-68
2021/11/22 11:00:31;;;;;;;21.60;10.90;;;;;;;3.78;81.95;97205.38;107837;1276;59745;-68
2021/11/22 11:03:06;;;;;;;29.40;15.40;;;;;;;3.83;82.06;97204.96;107873;1276;71691;-67
2021/11/22 11:05:41;;;;;;;23.70;12.40;;;;;;;3.86;81.97;97201.69;107949;1275;68676;-69
2021/11/22 11:08:21;;;;;;;18.40;9.10;;;;;;;3.87;81.83;97198.58;107871;1277;69742;-68
2021/11/22 11:11:17;;;;;;;18.50;10.20;;;;;;;3.87;81.70;97201.46;107900;1275;59792;-68
2021/11/22 11:13:52;;;;;;;20.90;11.80;;;;;;;3.85;81.49;97193.50;107788;1276;59741;-70
2021/11/22 11:16:29;;;;;;;21.60;11.50;;;;;;;3.86;81.72;97193.10;107722;1278;72890;-68
2021/11/22 11:19:09;;;;;;;19.50;9.30;;;;;;;3.88;81.69;97189.04;107658;1274;68808;-69
2021/11/22 11:21:45;;;;;;;20.10;10.30;;;;;;;3.92;81.63;97193.65;107690;1275;69292;-68
2021/11/22 11:24:18;;;;;;;24.40;13.60;;;;;;;3.93;81.32;97200.48;107853;1278;59786;-69
2021/11/22 11:26:50;;;;;;;25.10;14.20;;;;;;;3.92;81.12;97206.23;107762;1277;59783;-68
2021/11/22 11:29:22;;;;;;;22.40;11.70;;;;;;;3.86;80.99;97203.78;107805;1277;71404;-68
2021/11/22 11:31:54;;;;;;;;;;;;;;;3.80;81.41;97201.46;107818;1274;68608;-67
2021/11/22 11:34:35;;;;;;;20.20;10.70;;;;;;;3.84;81.36;97196.64;107915;1272;69849;-68
2021/11/22 11:37:46;;;;;;;20.50;11.60;;;;;;;3.90;81.18;97196.35;107603;1278;59843;-68
2021/11/22 11:40:54;;;;;;;18.00;9.90;;;;;;;3.93;81.31;97194.48;107686;1277;59789;-68
2021/11/22 11:44:09;;;;;;;28.50;14.10;;;;;;;3.93;81.10;97193.96;107857;1276;71710;-68
2021/11/22 11:47:15;;;;;;;26.70;13.80;;;;;;;3.85;81.21;97193.46;107773;1277;67853;-68